sensor_id;sensor_type;location;lat;lon;timestamp;temperature;humidity
5172;DHT22;2605;49.770;9.868;2024-01-25T00:00:05;7.60;99.90
5172;DHT22;2605;49.770;9.868;2024-01-25T00:02:31;7.50;99.90
5172;DHT22;2605;49.770;9.868;2024-01-25T00:04:56;7.50;99.90
5172;DHT22;2605;49.770;9.868;2024-01-25T00:07:22;7.50;99.90
5172;DHT22;2605;49.770;9.868;2024-01-25T00:09:47;7.40;99.90
5172;DHT22;2605;49.770;9.868;2024-01-25T00:12:13;7.50;99.90
5172;DHT22;2605;49.770;9.868;2024-01-25T00:14:38;7.40;99.90
5172;DHT22;2605;49.770;9.868;2024-01-25T00:17:04;7.50;99.90
5172;DHT22;2605;49.770;9.868;2024-01-25T00:19:29;7.50;99.90
5172;DHT22;2605;49.770;9.868;2024-01-25T00:21:55;7.40;99.90
5172;DHT22;2605;49.770;9.868;2024-01-25T00:24:20;7.40;99.90
5172;DHT22;2605;49.770;9.868;2024-01-25T00:26:46;7.40;99.90
5172;DHT22;2605;49.770;9.868;2024-01-25T00:29:11;7.40;99.90
5172;DHT22;2605;49.770;9.868;2024-01-25T00:31:37;7.40;99.90
5172;DHT22;2605;49.770;9.868;2024-01-25T00:34:03;7.30;99.90
5172;DHT22;2605;49.770;9.868;2024-01-25T00:36:29;7.30;99.90
5172;DHT22;2605;49.770;9.868;2024-01-25T00:38:54;7.40;99.90
5172;DHT22;2605;49.770;9.868;2024-01-25T00:41:20;7.50;99.90
5172;DHT22;2605;49.770;9.868;2024-01-25T00:43:46;7.50;99.90
5172;DHT22;2605;49.770;9.868;2024-01-25T00:46:12;7.60;99.90
5172;DHT22;2605;49.770;9.868;2024-01-25T00:48:38;7.60;99.90
5172;DHT22;2605;49.770;9.868;2024-01-25T00:51:07;7.50;99.90
5172;DHT22;2605;49.770;9.868;2024-01-25T00:53:33;7.60;99.90
5172;DHT22;2605;49.770;9.868;2024-01-25T00:55:59;7.50;99.90
5172;DHT22;2605;49.770;9.868;2024-01-25T00:58:25;7.50;99.90
5172;DHT22;2605;49.770;9.868;2024-01-25T01:00:51;7.50;99.90
5172;DHT22;2605;49.770;9.868;2024-01-25T01:03:18;7.40;99.90
5172;DHT22;2605;49.770;9.868;2024-01-25T01:05:45;7.40;99.90
5172;DHT22;2605;49.770;9.868;2024-01-25T01:08:11;7.40;99.90
5172;DHT22;2605;49.770;9.868;2024-01-25T01:10:37;7.30;99.90
5172;DHT22;2605;49.770;9.868;2024-01-25T01:13:02;7.20;99.90
5172;DHT22;2605;49.770;9.868;2024-01-25T01:15:28;7.20;99.90
5172;DHT22;2605;49.770;9.868;2024-01-25T01:17:53;7.20;99.90
5172;DHT22;2605;49.770;9.868;2024-01-25T01:20:19;7.20;99.90
5172;DHT22;2605;49.770;9.868;2024-01-25T01:22:44;7.20;99.90
5172;DHT22;2605;49.770;9.868;2024-01-25T01:25:10;7.20;99.90
5172;DHT22;2605;49.770;9.868;2024-01-25T01:27:36;7.20;99.90
5172;DHT22;2605;49.770;9.868;2024-01-25T01:30:02;7.20;99.90
5172;DHT22;2605;49.770;9.868;2024-01-25T01:32:28;7.10;99.90
5172;DHT22;2605;49.770;9.868;2024-01-25T01:34:53;7.10;99.90
5172;DHT22;2605;49.770;9.868;2024-01-25T01:37:19;7.20;99.90
5172;DHT22;2605;49.770;9.868;2024-01-25T01:39:44;7.20;99.90
5172;DHT22;2605;49.770;9.868;2024-01-25T01:42:10;7.20;99.90
5172;DHT22;2605;49.770;9.868;2024-01-25T01:44:36;7.20;99.90
5172;DHT22;2605;49.770;9.868;2024-01-25T01:47:01;7.20;99.90
5172;DHT22;2605;49.770;9.868;2024-01-25T01:49:27;7.20;99.90
5172;DHT22;2605;49.770;9.868;2024-01-25T01:51:52;7.20;99.90
5172;DHT22;2605;49.770;9.868;2024-01-25T01:54:18;7.20;99.90
5172;DHT22;2605;49.770;9.868;2024-01-25T01:56:44;7.30;99.90
5172;DHT22;2605;49.770;9.868;2024-01-25T01:59:11;7.20;99.90
5172;DHT22;2605;49.770;9.868;2024-01-25T02:01:37;7.20;99.90
5172;DHT22;2605;49.770;9.868;2024-01-25T02:04:06;7.20;99.90
5172;DHT22;2605;49.770;9.868;2024-01-25T02:06:32;7.20;99.90
5172;DHT22;2605;49.770;9.868;2024-01-25T02:08:58;7.20;99.90
5172;DHT22;2605;49.770;9.868;2024-01-25T02:11:24;7.10;99.90
5172;DHT22;2605;49.770;9.868;2024-01-25T02:13:50;7.10;99.90
5172;DHT22;2605;49.770;9.868;2024-01-25T02:16:15;7.10;99.90
5172;DHT22;2605;49.770;9.868;2024-01-25T02:18:42;7.10;99.90
5172;DHT22;2605;49.770;9.868;2024-01-25T02:21:07;7.10;99.90
5172;DHT22;2605;49.770;9.868;2024-01-25T02:23:33;7.00;99.90
5172;DHT22;2605;49.770;9.868;2024-01-25T02:25:59;7.00;99.90
5172;DHT22;2605;49.770;9.868;2024-01-25T02:28:24;7.00;99.90
5172;DHT22;2605;49.770;9.868;2024-01-25T02:30:50;7.00;99.90
5172;DHT22;2605;49.770;9.868;2024-01-25T02:33:16;7.00;99.90
5172;DHT22;2605;49.770;9.868;2024-01-25T02:35:41;7.00;99.90
5172;DHT22;2605;49.770;9.868;2024-01-25T02:38:07;7.00;99.90
5172;DHT22;2605;49.770;9.868;2024-01-25T02:40:32;7.00;99.90
5172;DHT22;2605;49.770;9.868;2024-01-25T02:42:58;7.00;99.90
5172;DHT22;2605;49.770;9.868;2024-01-25T02:45:23;7.10;99.90
5172;DHT22;2605;49.770;9.868;2024-01-25T02:47:49;7.10;99.90
5172;DHT22;2605;49.770;9.868;2024-01-25T02:50:15;7.10;99.90
5172;DHT22;2605;49.770;9.868;2024-01-25T02:52:40;7.00;99.90
5172;DHT22;2605;49.770;9.868;2024-01-25T02:55:06;7.00;99.90
5172;DHT22;2605;49.770;9.868;2024-01-25T02:57:32;7.00;99.90
5172;DHT22;2605;49.770;9.868;2024-01-25T02:59:57;7.00;99.90
5172;DHT22;2605;49.770;9.868;2024-01-25T03:02:23;6.90;99.90
5172;DHT22;2605;49.770;9.868;2024-01-25T03:04:48;6.90;99.90
5172;DHT22;2605;49.770;9.868;2024-01-25T03:07:14;7.00;99.90
5172;DHT22;2605;49.770;9.868;2024-01-25T03:09:40;7.00;99.90
5172;DHT22;2605;49.770;9.868;2024-01-25T03:12:05;6.90;99.90
5172;DHT22;2605;49.770;9.868;2024-01-25T03:14:31;6.90;99.90
5172;DHT22;2605;49.770;9.868;2024-01-25T03:16:56;7.00;99.90
5172;DHT22;2605;49.770;9.868;2024-01-25T03:19:26;7.00;99.90
5172;DHT22;2605;49.770;9.868;2024-01-25T03:21:52;7.00;99.90
5172;DHT22;2605;49.770;9.868;2024-01-25T03:24:18;6.90;99.90
5172;DHT22;2605;49.770;9.868;2024-01-25T03:26:44;6.90;99.90
5172;DHT22;2605;49.770;9.868;2024-01-25T03:29:09;6.90;99.90
5172;DHT22;2605;49.770;9.868;2024-01-25T03:31:35;6.90;99.90
5172;DHT22;2605;49.770;9.868;2024-01-25T03:34:01;6.90;99.90
5172;DHT22;2605;49.770;9.868;2024-01-25T03:36:27;6.90;99.90
5172;DHT22;2605;49.770;9.868;2024-01-25T03:38:52;6.90;99.90
5172;DHT22;2605;49.770;9.868;2024-01-25T03:41:21;6.90;99.90
5172;DHT22;2605;49.770;9.868;2024-01-25T03:43:48;6.90;99.90
5172;DHT22;2605;49.770;9.868;2024-01-25T03:46:14;7.00;99.90
5172;DHT22;2605;49.770;9.868;2024-01-25T03:48:39;7.00;99.90
5172;DHT22;2605;49.770;9.868;2024-01-25T03:51:05;7.00;99.90
5172;DHT22;2605;49.770;9.868;2024-01-25T03:53:33;7.00;99.90
5172;DHT22;2605;49.770;9.868;2024-01-25T03:55:59;7.10;99.90
5172;DHT22;2605;49.770;9.868;2024-01-25T03:58:24;7.00;99.90
5172;DHT22;2605;49.770;9.868;2024-01-25T04:00:50;7.10;99.90
5172;DHT22;2605;49.770;9.868;2024-01-25T04:03:15;7.10;99.90
5172;DHT22;2605;49.770;9.868;2024-01-25T04:05:41;7.10;99.90
5172;DHT22;2605;49.770;9.868;2024-01-25T04:08:07;7.00;99.90
5172;DHT22;2605;49.770;9.868;2024-01-25T04:10:33;7.00;99.90
5172;DHT22;2605;49.770;9.868;2024-01-25T04:12:59;7.00;99.90
5172;DHT22;2605;49.770;9.868;2024-01-25T04:15:26;7.00;99.90
5172;DHT22;2605;49.770;9.868;2024-01-25T04:17:51;6.90;99.90
5172;DHT22;2605;49.770;9.868;2024-01-25T04:20:18;7.00;99.90
5172;DHT22;2605;49.770;9.868;2024-01-25T04:22:44;7.10;99.90
5172;DHT22;2605;49.770;9.868;2024-01-25T04:25:10;7.10;99.90
5172;DHT22;2605;49.770;9.868;2024-01-25T04:27:37;7.10;99.90
5172;DHT22;2605;49.770;9.868;2024-01-25T04:30:04;7.00;99.90
5172;DHT22;2605;49.770;9.868;2024-01-25T04:32:30;7.00;99.90
5172;DHT22;2605;49.770;9.868;2024-01-25T04:34:55;7.00;99.90
5172;DHT22;2605;49.770;9.868;2024-01-25T04:37:21;7.10;99.90
5172;DHT22;2605;49.770;9.868;2024-01-25T04:39:46;7.00;99.90
5172;DHT22;2605;49.770;9.868;2024-01-25T04:42:12;7.00;99.90
5172;DHT22;2605;49.770;9.868;2024-01-25T04:44:37;7.10;99.90
5172;DHT22;2605;49.770;9.868;2024-01-25T04:47:03;7.10;99.90
5172;DHT22;2605;49.770;9.868;2024-01-25T04:49:28;7.00;99.90
5172;DHT22;2605;49.770;9.868;2024-01-25T04:51:57;7.00;99.90
5172;DHT22;2605;49.770;9.868;2024-01-25T04:54:23;7.00;99.90
5172;DHT22;2605;49.770;9.868;2024-01-25T04:56:48;7.00;99.90
5172;DHT22;2605;49.770;9.868;2024-01-25T04:59:14;7.00;99.90
5172;DHT22;2605;49.770;9.868;2024-01-25T05:01:39;7.00;99.90
5172;DHT22;2605;49.770;9.868;2024-01-25T05:04:04;7.00;99.90
5172;DHT22;2605;49.770;9.868;2024-01-25T05:06:33;7.00;99.90
5172;DHT22;2605;49.770;9.868;2024-01-25T05:08:59;6.90;99.90
5172;DHT22;2605;49.770;9.868;2024-01-25T05:11:24;6.90;99.90
5172;DHT22;2605;49.770;9.868;2024-01-25T05:13:49;6.90;99.90
5172;DHT22;2605;49.770;9.868;2024-01-25T05:16:15;6.90;99.90
5172;DHT22;2605;49.770;9.868;2024-01-25T05:18:41;6.90;99.90
5172;DHT22;2605;49.770;9.868;2024-01-25T05:21:06;6.80;99.90
5172;DHT22;2605;49.770;9.868;2024-01-25T05:23:32;6.80;99.90
5172;DHT22;2605;49.770;9.868;2024-01-25T05:25:57;6.80;99.90
5172;DHT22;2605;49.770;9.868;2024-01-25T05:28:23;6.70;99.90
5172;DHT22;2605;49.770;9.868;2024-01-25T05:30:49;6.70;99.90
5172;DHT22;2605;49.770;9.868;2024-01-25T05:33:15;6.60;99.90
5172;DHT22;2605;49.770;9.868;2024-01-25T05:35:40;6.50;99.90
5172;DHT22;2605;49.770;9.868;2024-01-25T05:38:06;6.50;99.90
5172;DHT22;2605;49.770;9.868;2024-01-25T05:40:31;6.40;99.90
5172;DHT22;2605;49.770;9.868;2024-01-25T05:42:58;6.30;99.90
5172;DHT22;2605;49.770;9.868;2024-01-25T05:45:24;6.30;99.90
5172;DHT22;2605;49.770;9.868;2024-01-25T05:47:50;6.20;99.90
5172;DHT22;2605;49.770;9.868;2024-01-25T05:50:15;6.20;99.90
5172;DHT22;2605;49.770;9.868;2024-01-25T05:52:41;6.10;99.90
5172;DHT22;2605;49.770;9.868;2024-01-25T05:55:06;6.10;99.90
5172;DHT22;2605;49.770;9.868;2024-01-25T05:57:35;6.10;99.90
5172;DHT22;2605;49.770;9.868;2024-01-25T06:00:00;6.10;99.90
5172;DHT22;2605;49.770;9.868;2024-01-25T06:02:26;6.10;99.90
5172;DHT22;2605;49.770;9.868;2024-01-25T06:04:51;6.10;99.90
5172;DHT22;2605;49.770;9.868;2024-01-25T06:07:17;6.10;99.90
5172;DHT22;2605;49.770;9.868;2024-01-25T06:09:45;6.10;99.90
5172;DHT22;2605;49.770;9.868;2024-01-25T06:12:11;6.00;99.90
5172;DHT22;2605;49.770;9.868;2024-01-25T06:14:36;6.00;99.90
5172;DHT22;2605;49.770;9.868;2024-01-25T06:17:02;6.00;99.90
5172;DHT22;2605;49.770;9.868;2024-01-25T06:19:28;6.00;99.90
5172;DHT22;2605;49.770;9.868;2024-01-25T06:21:54;6.00;99.90
5172;DHT22;2605;49.770;9.868;2024-01-25T06:24:19;6.00;99.90
5172;DHT22;2605;49.770;9.868;2024-01-25T06:26:45;6.00;99.90
5172;DHT22;2605;49.770;9.868;2024-01-25T06:29:10;6.00;99.90
5172;DHT22;2605;49.770;9.868;2024-01-25T06:31:43;6.00;99.90
5172;DHT22;2605;49.770;9.868;2024-01-25T06:34:11;6.00;99.90
5172;DHT22;2605;49.770;9.868;2024-01-25T06:36:37;5.90;99.90
5172;DHT22;2605;49.770;9.868;2024-01-25T06:39:03;5.90;99.90
5172;DHT22;2605;49.770;9.868;2024-01-25T06:41:32;5.90;99.90
5172;DHT22;2605;49.770;9.868;2024-01-25T06:43:58;5.80;99.90
5172;DHT22;2605;49.770;9.868;2024-01-25T06:46:24;5.90;99.90
5172;DHT22;2605;49.770;9.868;2024-01-25T06:48:50;5.90;99.90
5172;DHT22;2605;49.770;9.868;2024-01-25T06:51:16;5.90;99.90
5172;DHT22;2605;49.770;9.868;2024-01-25T06:53:42;5.90;99.90
5172;DHT22;2605;49.770;9.868;2024-01-25T06:56:07;5.80;99.90
5172;DHT22;2605;49.770;9.868;2024-01-25T06:58:33;5.80;99.90
5172;DHT22;2605;49.770;9.868;2024-01-25T07:00:59;5.80;99.90
5172;DHT22;2605;49.770;9.868;2024-01-25T07:03:24;5.80;99.90
5172;DHT22;2605;49.770;9.868;2024-01-25T07:05:50;5.80;99.90
5172;DHT22;2605;49.770;9.868;2024-01-25T07:08:15;5.70;99.90
5172;DHT22;2605;49.770;9.868;2024-01-25T07:10:42;5.70;99.90
5172;DHT22;2605;49.770;9.868;2024-01-25T07:13:07;5.70;99.90
5172;DHT22;2605;49.770;9.868;2024-01-25T07:15:33;5.70;99.90
5172;DHT22;2605;49.770;9.868;2024-01-25T07:17:59;5.70;99.90
5172;DHT22;2605;49.770;9.868;2024-01-25T07:20:27;5.70;99.90
5172;DHT22;2605;49.770;9.868;2024-01-25T07:22:52;5.60;99.90
5172;DHT22;2605;49.770;9.868;2024-01-25T07:25:18;5.60;99.90
5172;DHT22;2605;49.770;9.868;2024-01-25T07:27:45;5.60;99.90
5172;DHT22;2605;49.770;9.868;2024-01-25T07:30:11;5.70;99.90
5172;DHT22;2605;49.770;9.868;2024-01-25T07:32:38;5.60;99.90
5172;DHT22;2605;49.770;9.868;2024-01-25T07:35:05;5.70;99.90
5172;DHT22;2605;49.770;9.868;2024-01-25T07:37:30;5.70;99.90
5172;DHT22;2605;49.770;9.868;2024-01-25T07:39:56;5.70;99.90
5172;DHT22;2605;49.770;9.868;2024-01-25T07:42:21;5.70;99.90
5172;DHT22;2605;49.770;9.868;2024-01-25T07:44:47;5.70;99.90
5172;DHT22;2605;49.770;9.868;2024-01-25T07:47:13;5.70;99.90
5172;DHT22;2605;49.770;9.868;2024-01-25T07:49:40;5.80;99.90
5172;DHT22;2605;49.770;9.868;2024-01-25T07:52:06;5.70;99.90
5172;DHT22;2605;49.770;9.868;2024-01-25T07:54:31;5.70;99.90
5172;DHT22;2605;49.770;9.868;2024-01-25T07:56:57;5.70;99.90
5172;DHT22;2605;49.770;9.868;2024-01-25T07:59:22;5.70;99.90
5172;DHT22;2605;49.770;9.868;2024-01-25T08:01:48;5.70;99.90
5172;DHT22;2605;49.770;9.868;2024-01-25T08:04:14;5.80;99.90
5172;DHT22;2605;49.770;9.868;2024-01-25T08:06:39;5.90;99.90
5172;DHT22;2605;49.770;9.868;2024-01-25T08:09:05;5.90;99.90
5172;DHT22;2605;49.770;9.868;2024-01-25T08:11:30;6.00;99.90
5172;DHT22;2605;49.770;9.868;2024-01-25T08:13:56;6.10;99.90
5172;DHT22;2605;49.770;9.868;2024-01-25T08:16:22;6.20;99.90
5172;DHT22;2605;49.770;9.868;2024-01-25T08:18:48;6.30;99.90
5172;DHT22;2605;49.770;9.868;2024-01-25T08:21:14;6.40;99.90
5172;DHT22;2605;49.770;9.868;2024-01-25T08:23:40;6.50;99.90
5172;DHT22;2605;49.770;9.868;2024-01-25T08:26:06;7.30;99.90
5172;DHT22;2605;49.770;9.868;2024-01-25T08:28:41;6.60;99.90
5172;DHT22;2605;49.770;9.868;2024-01-25T08:31:07;6.60;99.90
5172;DHT22;2605;49.770;9.868;2024-01-25T08:33:32;6.50;99.90
5172;DHT22;2605;49.770;9.868;2024-01-25T08:35:58;6.50;99.90
5172;DHT22;2605;49.770;9.868;2024-01-25T08:38:24;6.50;99.90
5172;DHT22;2605;49.770;9.868;2024-01-25T08:40:49;6.50;99.90
5172;DHT22;2605;49.770;9.868;2024-01-25T08:43:15;6.50;99.90
5172;DHT22;2605;49.770;9.868;2024-01-25T08:45:40;6.50;99.90
5172;DHT22;2605;49.770;9.868;2024-01-25T08:48:06;6.60;99.90
5172;DHT22;2605;49.770;9.868;2024-01-25T08:50:34;6.60;99.90
5172;DHT22;2605;49.770;9.868;2024-01-25T08:53:00;6.60;99.90
5172;DHT22;2605;49.770;9.868;2024-01-25T08:55:25;6.70;99.90
5172;DHT22;2605;49.770;9.868;2024-01-25T08:57:51;6.80;99.90
5172;DHT22;2605;49.770;9.868;2024-01-25T09:00:16;6.80;99.90
5172;DHT22;2605;49.770;9.868;2024-01-25T09:02:43;6.80;99.90
5172;DHT22;2605;49.770;9.868;2024-01-25T09:05:09;6.80;99.90
5172;DHT22;2605;49.770;9.868;2024-01-25T09:07:35;6.80;99.90
5172;DHT22;2605;49.770;9.868;2024-01-25T09:10:00;6.90;99.90
5172;DHT22;2605;49.770;9.868;2024-01-25T09:12:26;7.00;99.90
5172;DHT22;2605;49.770;9.868;2024-01-25T09:14:52;7.00;99.90
5172;DHT22;2605;49.770;9.868;2024-01-25T09:17:17;7.10;99.90
5172;DHT22;2605;49.770;9.868;2024-01-25T09:19:48;7.10;99.90
5172;DHT22;2605;49.770;9.868;2024-01-25T09:22:15;7.20;99.90
5172;DHT22;2605;49.770;9.868;2024-01-25T09:24:42;7.20;99.90
5172;DHT22;2605;49.770;9.868;2024-01-25T09:27:07;7.30;99.90
5172;DHT22;2605;49.770;9.868;2024-01-25T09:29:33;7.30;99.90
5172;DHT22;2605;49.770;9.868;2024-01-25T09:31:59;7.40;99.90
5172;DHT22;2605;49.770;9.868;2024-01-25T09:34:24;7.40;99.90
5172;DHT22;2605;49.770;9.868;2024-01-25T09:36:51;7.40;99.90
5172;DHT22;2605;49.770;9.868;2024-01-25T09:39:16;7.40;99.90
5172;DHT22;2605;49.770;9.868;2024-01-25T09:41:46;7.40;99.90
5172;DHT22;2605;49.770;9.868;2024-01-25T09:44:11;7.30;99.90
5172;DHT22;2605;49.770;9.868;2024-01-25T09:46:38;7.30;99.90
5172;DHT22;2605;49.770;9.868;2024-01-25T09:49:05;7.30;99.90
5172;DHT22;2605;49.770;9.868;2024-01-25T09:51:36;7.30;99.90
5172;DHT22;2605;49.770;9.868;2024-01-25T09:54:03;7.50;99.90
5172;DHT22;2605;49.770;9.868;2024-01-25T09:56:31;7.50;99.90
5172;DHT22;2605;49.770;9.868;2024-01-25T09:58:58;7.50;99.90
5172;DHT22;2605;49.770;9.868;2024-01-25T10:01:24;7.60;99.90
5172;DHT22;2605;49.770;9.868;2024-01-25T10:03:49;7.50;99.90
5172;DHT22;2605;49.770;9.868;2024-01-25T10:06:16;7.50;99.90
5172;DHT22;2605;49.770;9.868;2024-01-25T10:08:42;7.50;99.90
5172;DHT22;2605;49.770;9.868;2024-01-25T10:11:07;7.50;99.90
5172;DHT22;2605;49.770;9.868;2024-01-25T10:13:43;7.60;99.90
5172;DHT22;2605;49.770;9.868;2024-01-25T10:16:13;7.60;99.90
5172;DHT22;2605;49.770;9.868;2024-01-25T10:18:44;7.60;99.90
5172;DHT22;2605;49.770;9.868;2024-01-25T10:21:13;7.60;99.90
5172;DHT22;2605;49.770;9.868;2024-01-25T10:23:40;7.60;99.90
5172;DHT22;2605;49.770;9.868;2024-01-25T10:26:08;7.60;99.90
5172;DHT22;2605;49.770;9.868;2024-01-25T10:28:33;7.60;99.90
5172;DHT22;2605;49.770;9.868;2024-01-25T10:31:02;7.80;99.90
5172;DHT22;2605;49.770;9.868;2024-01-25T10:33:30;7.80;99.90
5172;DHT22;2605;49.770;9.868;2024-01-25T10:35:58;7.70;99.90
5172;DHT22;2605;49.770;9.868;2024-01-25T10:38:30;7.70;99.90
5172;DHT22;2605;49.770;9.868;2024-01-25T10:40:57;7.70;99.90
5172;DHT22;2605;49.770;9.868;2024-01-25T10:43:23;7.60;99.90
5172;DHT22;2605;49.770;9.868;2024-01-25T10:45:48;7.70;99.90
5172;DHT22;2605;49.770;9.868;2024-01-25T10:48:19;7.60;99.90
5172;DHT22;2605;49.770;9.868;2024-01-25T10:50:45;7.70;99.90
5172;DHT22;2605;49.770;9.868;2024-01-25T10:53:12;7.70;99.90
5172;DHT22;2605;49.770;9.868;2024-01-25T10:55:38;7.70;99.90
5172;DHT22;2605;49.770;9.868;2024-01-25T10:58:06;7.80;99.90
5172;DHT22;2605;49.770;9.868;2024-01-25T11:00:32;7.80;99.90
5172;DHT22;2605;49.770;9.868;2024-01-25T11:02:58;7.90;99.90
5172;DHT22;2605;49.770;9.868;2024-01-25T11:05:26;7.90;99.90
5172;DHT22;2605;49.770;9.868;2024-01-25T11:07:52;8.00;99.90
5172;DHT22;2605;49.770;9.868;2024-01-25T11:10:19;8.00;99.90
5172;DHT22;2605;49.770;9.868;2024-01-25T11:15:30;8.10;99.90
5172;DHT22;2605;49.770;9.868;2024-01-25T11:17:56;8.10;99.90
5172;DHT22;2605;49.770;9.868;2024-01-25T11:20:27;8.10;99.90
5172;DHT22;2605;49.770;9.868;2024-01-25T11:23:07;8.10;99.90
5172;DHT22;2605;49.770;9.868;2024-01-25T11:25:35;8.20;99.90
5172;DHT22;2605;49.770;9.868;2024-01-25T11:28:03;8.20;99.90
5172;DHT22;2605;49.770;9.868;2024-01-25T11:30:31;8.20;99.90
5172;DHT22;2605;49.770;9.868;2024-01-25T11:32:57;8.20;99.90
5172;DHT22;2605;49.770;9.868;2024-01-25T11:35:22;8.20;99.90
5172;DHT22;2605;49.770;9.868;2024-01-25T11:37:49;8.00;99.90
5172;DHT22;2605;49.770;9.868;2024-01-25T11:40:16;8.10;99.90
5172;DHT22;2605;49.770;9.868;2024-01-25T11:42:42;8.20;99.90
5172;DHT22;2605;49.770;9.868;2024-01-25T11:45:10;8.30;99.90
5172;DHT22;2605;49.770;9.868;2024-01-25T11:47:37;8.50;99.90
5172;DHT22;2605;49.770;9.868;2024-01-25T11:50:03;8.30;99.90
5172;DHT22;2605;49.770;9.868;2024-01-25T11:52:29;8.30;99.90
5172;DHT22;2605;49.770;9.868;2024-01-25T11:54:57;8.30;99.90
5172;DHT22;2605;49.770;9.868;2024-01-25T11:57:22;8.40;99.90
5172;DHT22;2605;49.770;9.868;2024-01-25T11:59:48;8.50;99.90
5172;DHT22;2605;49.770;9.868;2024-01-25T12:02:15;8.50;99.90
5172;DHT22;2605;49.770;9.868;2024-01-25T12:04:40;8.60;99.90
5172;DHT22;2605;49.770;9.868;2024-01-25T12:07:06;8.70;99.90
5172;DHT22;2605;49.770;9.868;2024-01-25T12:09:32;8.50;99.90
5172;DHT22;2605;49.770;9.868;2024-01-25T12:12:00;8.50;99.90
5172;DHT22;2605;49.770;9.868;2024-01-25T12:14:26;8.50;99.90
5172;DHT22;2605;49.770;9.868;2024-01-25T12:16:52;8.50;99.90
5172;DHT22;2605;49.770;9.868;2024-01-25T12:19:20;8.50;99.90
5172;DHT22;2605;49.770;9.868;2024-01-25T12:21:47;8.50;99.90
5172;DHT22;2605;49.770;9.868;2024-01-25T12:24:12;8.40;99.90
5172;DHT22;2605;49.770;9.868;2024-01-25T12:26:38;8.30;99.90
5172;DHT22;2605;49.770;9.868;2024-01-25T12:29:04;8.40;99.90
5172;DHT22;2605;49.770;9.868;2024-01-25T12:31:30;8.40;99.90
5172;DHT22;2605;49.770;9.868;2024-01-25T12:33:56;8.50;99.90
5172;DHT22;2605;49.770;9.868;2024-01-25T12:36:23;8.40;99.90
5172;DHT22;2605;49.770;9.868;2024-01-25T12:38:48;8.40;99.90
5172;DHT22;2605;49.770;9.868;2024-01-25T12:41:14;8.30;99.90
5172;DHT22;2605;49.770;9.868;2024-01-25T12:43:40;8.30;99.90
5172;DHT22;2605;49.770;9.868;2024-01-25T12:46:06;8.30;99.90
5172;DHT22;2605;49.770;9.868;2024-01-25T12:48:31;8.30;99.90
5172;DHT22;2605;49.770;9.868;2024-01-25T12:50:57;8.40;99.90
5172;DHT22;2605;49.770;9.868;2024-01-25T12:53:22;8.50;99.90
5172;DHT22;2605;49.770;9.868;2024-01-25T12:55:48;8.50;99.90
5172;DHT22;2605;49.770;9.868;2024-01-25T12:58:13;8.50;99.90
5172;DHT22;2605;49.770;9.868;2024-01-25T13:00:39;8.60;99.90
5172;DHT22;2605;49.770;9.868;2024-01-25T13:03:04;8.70;99.90
5172;DHT22;2605;49.770;9.868;2024-01-25T13:05:33;8.70;99.90
5172;DHT22;2605;49.770;9.868;2024-01-25T13:08:00;8.70;99.90
5172;DHT22;2605;49.770;9.868;2024-01-25T13:10:27;8.70;99.90
5172;DHT22;2605;49.770;9.868;2024-01-25T13:12:53;8.70;99.90
5172;DHT22;2605;49.770;9.868;2024-01-25T13:15:18;8.70;99.90
5172;DHT22;2605;49.770;9.868;2024-01-25T13:17:44;8.70;99.90
5172;DHT22;2605;49.770;9.868;2024-01-25T13:20:10;8.80;99.90
5172;DHT22;2605;49.770;9.868;2024-01-25T13:22:36;8.90;99.90
5172;DHT22;2605;49.770;9.868;2024-01-25T13:25:02;8.80;99.90
5172;DHT22;2605;49.770;9.868;2024-01-25T13:27:28;8.90;99.90
5172;DHT22;2605;49.770;9.868;2024-01-25T13:29:54;8.70;99.90
5172;DHT22;2605;49.770;9.868;2024-01-25T13:32:20;8.60;99.90
5172;DHT22;2605;49.770;9.868;2024-01-25T13:34:45;8.50;99.90
5172;DHT22;2605;49.770;9.868;2024-01-25T13:37:11;8.50;99.90
5172;DHT22;2605;49.770;9.868;2024-01-25T13:39:36;8.40;99.90
5172;DHT22;2605;49.770;9.868;2024-01-25T13:42:02;8.50;99.90
5172;DHT22;2605;49.770;9.868;2024-01-25T13:44:27;8.40;99.90
5172;DHT22;2605;49.770;9.868;2024-01-25T13:46:53;8.30;99.90
5172;DHT22;2605;49.770;9.868;2024-01-25T13:49:19;8.40;99.90
5172;DHT22;2605;49.770;9.868;2024-01-25T13:51:45;8.40;99.90
5172;DHT22;2605;49.770;9.868;2024-01-25T13:54:10;8.30;99.90
5172;DHT22;2605;49.770;9.868;2024-01-25T13:56:36;8.30;99.90
5172;DHT22;2605;49.770;9.868;2024-01-25T13:59:01;8.30;99.90
5172;DHT22;2605;49.770;9.868;2024-01-25T14:01:27;8.30;99.90
5172;DHT22;2605;49.770;9.868;2024-01-25T14:03:52;8.30;99.90
5172;DHT22;2605;49.770;9.868;2024-01-25T14:06:18;8.30;99.90
5172;DHT22;2605;49.770;9.868;2024-01-25T14:08:43;8.30;99.90
5172;DHT22;2605;49.770;9.868;2024-01-25T14:11:09;8.20;99.90
5172;DHT22;2605;49.770;9.868;2024-01-25T14:13:35;8.20;99.90
5172;DHT22;2605;49.770;9.868;2024-01-25T14:16:01;8.20;99.90
5172;DHT22;2605;49.770;9.868;2024-01-25T14:18:36;8.20;99.90
5172;DHT22;2605;49.770;9.868;2024-01-25T14:21:02;8.20;99.90
5172;DHT22;2605;49.770;9.868;2024-01-25T14:23:27;8.10;99.90
5172;DHT22;2605;49.770;9.868;2024-01-25T14:25:53;8.10;99.90
5172;DHT22;2605;49.770;9.868;2024-01-25T14:28:18;8.10;99.90
5172;DHT22;2605;49.770;9.868;2024-01-25T14:30:44;8.10;99.90
5172;DHT22;2605;49.770;9.868;2024-01-25T14:33:11;8.00;99.90
5172;DHT22;2605;49.770;9.868;2024-01-25T14:35:37;8.00;99.90
5172;DHT22;2605;49.770;9.868;2024-01-25T14:38:03;8.00;99.90
5172;DHT22;2605;49.770;9.868;2024-01-25T14:40:28;8.00;99.90
5172;DHT22;2605;49.770;9.868;2024-01-25T14:42:54;8.00;99.90
5172;DHT22;2605;49.770;9.868;2024-01-25T14:45:19;8.00;99.90
5172;DHT22;2605;49.770;9.868;2024-01-25T14:47:45;8.00;99.90
5172;DHT22;2605;49.770;9.868;2024-01-25T14:50:10;7.90;99.90
5172;DHT22;2605;49.770;9.868;2024-01-25T14:52:36;7.90;99.90
5172;DHT22;2605;49.770;9.868;2024-01-25T14:55:03;7.90;99.90
5172;DHT22;2605;49.770;9.868;2024-01-25T14:57:29;7.80;99.90
5172;DHT22;2605;49.770;9.868;2024-01-25T14:59:55;7.80;99.90
5172;DHT22;2605;49.770;9.868;2024-01-25T15:02:20;7.70;99.90
5172;DHT22;2605;49.770;9.868;2024-01-25T15:04:46;7.70;99.90
5172;DHT22;2605;49.770;9.868;2024-01-25T15:07:11;7.70;99.90
5172;DHT22;2605;49.770;9.868;2024-01-25T15:09:37;7.70;99.90
5172;DHT22;2605;49.770;9.868;2024-01-25T15:12:03;7.70;99.90
5172;DHT22;2605;49.770;9.868;2024-01-25T15:14:28;7.60;99.90
5172;DHT22;2605;49.770;9.868;2024-01-25T15:16:54;7.60;99.90
5172;DHT22;2605;49.770;9.868;2024-01-25T15:19:19;7.60;99.90
5172;DHT22;2605;49.770;9.868;2024-01-25T15:21:45;7.60;99.90
5172;DHT22;2605;49.770;9.868;2024-01-25T15:24:11;7.60;99.90
5172;DHT22;2605;49.770;9.868;2024-01-25T15:26:43;7.60;99.90
5172;DHT22;2605;49.770;9.868;2024-01-25T15:29:08;7.50;99.90
5172;DHT22;2605;49.770;9.868;2024-01-25T15:31:34;7.50;99.90
5172;DHT22;2605;49.770;9.868;2024-01-25T15:34:00;7.40;99.90
5172;DHT22;2605;49.770;9.868;2024-01-25T15:36:25;7.40;99.90
5172;DHT22;2605;49.770;9.868;2024-01-25T15:38:51;7.30;99.90
5172;DHT22;2605;49.770;9.868;2024-01-25T15:41:16;7.30;99.90
5172;DHT22;2605;49.770;9.868;2024-01-25T15:43:44;7.30;99.90
5172;DHT22;2605;49.770;9.868;2024-01-25T15:46:09;7.20;99.90
5172;DHT22;2605;49.770;9.868;2024-01-25T15:48:36;7.20;99.90
5172;DHT22;2605;49.770;9.868;2024-01-25T15:51:04;7.10;99.90
5172;DHT22;2605;49.770;9.868;2024-01-25T15:53:30;7.10;99.90
5172;DHT22;2605;49.770;9.868;2024-01-25T15:55:55;7.00;99.90
5172;DHT22;2605;49.770;9.868;2024-01-25T15:58:23;7.00;99.90
5172;DHT22;2605;49.770;9.868;2024-01-25T16:00:48;7.00;99.90
5172;DHT22;2605;49.770;9.868;2024-01-25T16:03:14;7.00;99.90
5172;DHT22;2605;49.770;9.868;2024-01-25T16:05:39;6.90;99.90
5172;DHT22;2605;49.770;9.868;2024-01-25T16:08:05;6.80;99.90
5172;DHT22;2605;49.770;9.868;2024-01-25T16:10:30;6.80;99.90